sensor_id;sensor_type;location;lat;lon;timestamp;P1;durP1;ratioP1;P2;durP2;ratioP2
39676;SDS011;27789;50.840;4.386;2022-11-15T00:02:07;30.65;;;20.60;;
39676;SDS011;27789;50.840;4.386;2022-11-15T00:04:32;33.20;;;20.83;;
39676;SDS011;27789;50.840;4.386;2022-11-15T00:06:58;32.70;;;21.08;;
39676;SDS011;27789;50.840;4.386;2022-11-15T00:09:23;33.58;;;21.63;;
39676;SDS011;27789;50.840;4.386;2022-11-15T00:11:49;34.45;;;21.83;;
39676;SDS011;27789;50.840;4.386;2022-11-15T00:14:16;31.73;;;21.00;;
39676;SDS011;27789;50.840;4.386;2022-11-15T00:16:42;33.63;;;22.08;;
39676;SDS011;27789;50.840;4.386;2022-11-15T00:19:08;28.02;;;20.65;;
39676;SDS011;27789;50.840;4.386;2022-11-15T00:21:34;37.05;;;22.15;;
39676;SDS011;27789;50.840;4.386;2022-11-15T00:24:00;34.47;;;22.67;;
39676;SDS011;27789;50.840;4.386;2022-11-15T00:26:25;40.28;;;23.17;;
39676;SDS011;27789;50.840;4.386;2022-11-15T00:28:51;33.38;;;23.35;;
39676;SDS011;27789;50.840;4.386;2022-11-15T00:31:18;34.70;;;23.00;;
39676;SDS011;27789;50.840;4.386;2022-11-15T00:33:43;37.20;;;23.73;;
39676;SDS011;27789;50.840;4.386;2022-11-15T00:36:10;35.65;;;24.02;;
39676;SDS011;27789;50.840;4.386;2022-11-15T00:38:37;30.50;;;22.23;;
39676;SDS011;27789;50.840;4.386;2022-11-15T00:41:04;32.45;;;24.15;;
39676;SDS011;27789;50.840;4.386;2022-11-15T00:43:31;35.75;;;22.95;;
39676;SDS011;27789;50.840;4.386;2022-11-15T00:45:57;36.08;;;23.77;;
39676;SDS011;27789;50.840;4.386;2022-11-15T00:48:23;39.00;;;23.45;;
39676;SDS011;27789;50.840;4.386;2022-11-15T00:50:49;37.45;;;24.75;;
39676;SDS011;27789;50.840;4.386;2022-11-15T00:53:15;42.95;;;24.95;;
39676;SDS011;27789;50.840;4.386;2022-11-15T00:55:41;35.13;;;24.00;;
39676;SDS011;27789;50.840;4.386;2022-11-15T00:58:07;44.63;;;25.35;;
39676;SDS011;27789;50.840;4.386;2022-11-15T01:00:33;37.70;;;24.40;;
39676;SDS011;27789;50.840;4.386;2022-11-15T01:02:59;37.80;;;25.25;;
39676;SDS011;27789;50.840;4.386;2022-11-15T01:05:26;39.53;;;25.98;;
39676;SDS011;27789;50.840;4.386;2022-11-15T01:07:52;49.92;;;26.10;;
39676;SDS011;27789;50.840;4.386;2022-11-15T01:10:18;41.70;;;25.27;;
39676;SDS011;27789;50.840;4.386;2022-11-15T01:12:44;38.63;;;26.02;;
39676;SDS011;27789;50.840;4.386;2022-11-15T01:15:09;45.97;;;26.90;;
39676;SDS011;27789;50.840;4.386;2022-11-15T01:17:35;44.70;;;26.20;;
39676;SDS011;27789;50.840;4.386;2022-11-15T01:20:01;40.40;;;26.15;;
39676;SDS011;27789;50.840;4.386;2022-11-15T01:22:26;50.08;;;25.55;;
39676;SDS011;27789;50.840;4.386;2022-11-15T01:24:52;46.95;;;25.95;;
39676;SDS011;27789;50.840;4.386;2022-11-15T01:27:18;45.53;;;27.17;;
39676;SDS011;27789;50.840;4.386;2022-11-15T01:29:43;41.38;;;22.95;;
39676;SDS011;27789;50.840;4.386;2022-11-15T01:32:12;42.17;;;26.52;;
39676;SDS011;27789;50.840;4.386;2022-11-15T01:34:37;44.83;;;26.70;;
39676;SDS011;27789;50.840;4.386;2022-11-15T01:37:03;42.78;;;24.70;;
39676;SDS011;27789;50.840;4.386;2022-11-15T01:39:28;40.97;;;25.30;;
39676;SDS011;27789;50.840;4.386;2022-11-15T01:41:54;36.80;;;25.08;;
39676;SDS011;27789;50.840;4.386;2022-11-15T01:49:32;37.50;;;21.27;;
39676;SDS011;27789;50.840;4.386;2022-11-15T01:52:00;32.25;;;22.30;;
39676;SDS011;27789;50.840;4.386;2022-11-15T01:54:29;38.10;;;20.38;;
39676;SDS011;27789;50.840;4.386;2022-11-15T01:57:06;36.90;;;22.90;;
39676;SDS011;27789;50.840;4.386;2022-11-15T01:59:34;35.15;;;22.10;;
39676;SDS011;27789;50.840;4.386;2022-11-15T02:02:01;29.88;;;20.85;;
39676;SDS011;27789;50.840;4.386;2022-11-15T02:07:11;30.73;;;19.70;;
39676;SDS011;27789;50.840;4.386;2022-11-15T02:09:40;29.00;;;19.70;;
39676;SDS011;27789;50.840;4.386;2022-11-15T02:12:07;35.35;;;19.60;;
39676;SDS011;27789;50.840;4.386;2022-11-15T02:14:34;25.00;;;19.45;;
39676;SDS011;27789;50.840;4.386;2022-11-15T02:41:04;32.70;;;19.85;;
39676;SDS011;27789;50.840;4.386;2022-11-15T02:43:40;27.60;;;18.77;;
39676;SDS011;27789;50.840;4.386;2022-11-15T02:46:43;29.90;;;18.70;;
39676;SDS011;27789;50.840;4.386;2022-11-15T02:49:20;28.83;;;19.60;;
39676;SDS011;27789;50.840;4.386;2022-11-15T02:51:47;25.80;;;19.35;;
39676;SDS011;27789;50.840;4.386;2022-11-15T02:54:18;34.50;;;18.77;;
39676;SDS011;27789;50.840;4.386;2022-11-15T02:56:50;27.88;;;17.38;;
39676;SDS011;27789;50.840;4.386;2022-11-15T02:59:24;24.00;;;17.98;;
39676;SDS011;27789;50.840;4.386;2022-11-15T03:01:56;24.92;;;17.42;;
39676;SDS011;27789;50.840;4.386;2022-11-15T03:04:41;21.15;;;12.27;;
39676;SDS011;27789;50.840;4.386;2022-11-15T03:07:18;24.02;;;15.13;;
39676;SDS011;27789;50.840;4.386;2022-11-15T03:15:23;22.98;;;14.32;;
39676;SDS011;27789;50.840;4.386;2022-11-15T03:20:29;24.55;;;14.02;;
39676;SDS011;27789;50.840;4.386;2022-11-15T03:22:57;18.63;;;14.63;;
39676;SDS011;27789;50.840;4.386;2022-11-15T03:25:27;18.83;;;13.88;;
39676;SDS011;27789;50.840;4.386;2022-11-15T03:27:55;19.65;;;12.73;;
39676;SDS011;27789;50.840;4.386;2022-11-15T03:30:23;22.42;;;12.32;;
39676;SDS011;27789;50.840;4.386;2022-11-15T03:32:50;17.92;;;12.75;;
39676;SDS011;27789;50.840;4.386;2022-11-15T03:35:30;25.30;;;12.43;;
39676;SDS011;27789;50.840;4.386;2022-11-15T03:40:53;16.63;;;10.85;;
39676;SDS011;27789;50.840;4.386;2022-11-15T03:45:55;18.23;;;11.10;;
39676;SDS011;27789;50.840;4.386;2022-11-15T03:49:16;18.83;;;10.23;;
39676;SDS011;27789;50.840;4.386;2022-11-15T03:51:26;19.92;;;10.90;;
39676;SDS011;27789;50.840;4.386;2022-11-15T03:53:52;22.23;;;10.73;;
39676;SDS011;27789;50.840;4.386;2022-11-15T03:56:17;15.90;;;10.63;;
39676;SDS011;27789;50.840;4.386;2022-11-15T03:58:43;18.88;;;9.90;;
39676;SDS011;27789;50.840;4.386;2022-11-15T04:01:08;16.65;;;9.98;;
39676;SDS011;27789;50.840;4.386;2022-11-15T04:03:34;17.83;;;9.60;;
39676;SDS011;27789;50.840;4.386;2022-11-15T04:06:00;13.40;;;9.40;;
39676;SDS011;27789;50.840;4.386;2022-11-15T04:08:25;21.90;;;9.77;;
39676;SDS011;27789;50.840;4.386;2022-11-15T04:10:51;10.88;;;8.00;;
39676;SDS011;27789;50.840;4.386;2022-11-15T04:13:16;12.32;;;8.25;;
39676;SDS011;27789;50.840;4.386;2022-11-15T04:15:42;15.98;;;8.70;;
39676;SDS011;27789;50.840;4.386;2022-11-15T04:18:07;14.77;;;8.77;;
39676;SDS011;27789;50.840;4.386;2022-11-15T04:20:33;13.25;;;8.05;;
39676;SDS011;27789;50.840;4.386;2022-11-15T04:23:09;11.98;;;8.07;;
39676;SDS011;27789;50.840;4.386;2022-11-15T04:25:52;18.55;;;9.90;;
39676;SDS011;27789;50.840;4.386;2022-11-15T04:28:19;14.07;;;7.97;;
39676;SDS011;27789;50.840;4.386;2022-11-15T04:30:45;17.50;;;8.10;;
39676;SDS011;27789;50.840;4.386;2022-11-15T04:33:11;13.00;;;8.02;;
39676;SDS011;27789;50.840;4.386;2022-11-15T04:35:37;16.35;;;8.45;;
39676;SDS011;27789;50.840;4.386;2022-11-15T04:38:03;18.67;;;8.68;;
39676;SDS011;27789;50.840;4.386;2022-11-15T04:40:30;13.50;;;7.70;;
39676;SDS011;27789;50.840;4.386;2022-11-15T04:42:56;14.00;;;7.70;;
39676;SDS011;27789;50.840;4.386;2022-11-15T04:45:22;15.50;;;7.18;;
39676;SDS011;27789;50.840;4.386;2022-11-15T04:47:47;15.25;;;7.82;;
39676;SDS011;27789;50.840;4.386;2022-11-15T04:50:13;15.05;;;7.78;;
39676;SDS011;27789;50.840;4.386;2022-11-15T04:52:40;11.00;;;7.80;;
39676;SDS011;27789;50.840;4.386;2022-11-15T04:55:07;18.10;;;8.50;;
39676;SDS011;27789;50.840;4.386;2022-11-15T04:57:34;13.45;;;6.68;;
39676;SDS011;27789;50.840;4.386;2022-11-15T04:59:59;13.63;;;6.55;;
39676;SDS011;27789;50.840;4.386;2022-11-15T05:02:25;16.27;;;7.00;;
39676;SDS011;27789;50.840;4.386;2022-11-15T05:05:11;8.85;;;6.65;;
39676;SDS011;27789;50.840;4.386;2022-11-15T05:07:36;11.88;;;5.95;;
39676;SDS011;27789;50.840;4.386;2022-11-15T05:10:02;10.45;;;6.10;;
39676;SDS011;27789;50.840;4.386;2022-11-15T05:12:27;12.23;;;5.88;;
39676;SDS011;27789;50.840;4.386;2022-11-15T05:14:53;11.90;;;6.57;;
39676;SDS011;27789;50.840;4.386;2022-11-15T05:17:18;10.30;;;5.88;;
39676;SDS011;27789;50.840;4.386;2022-11-15T05:19:44;11.40;;;5.47;;
39676;SDS011;27789;50.840;4.386;2022-11-15T05:22:10;14.82;;;5.63;;
39676;SDS011;27789;50.840;4.386;2022-11-15T05:24:35;11.63;;;5.15;;
39676;SDS011;27789;50.840;4.386;2022-11-15T05:27:01;9.60;;;5.05;;
39676;SDS011;27789;50.840;4.386;2022-11-15T05:29:26;14.98;;;4.88;;
39676;SDS011;27789;50.840;4.386;2022-11-15T05:31:52;10.85;;;5.78;;
39676;SDS011;27789;50.840;4.386;2022-11-15T05:34:17;12.00;;;5.55;;
39676;SDS011;27789;50.840;4.386;2022-11-15T05:36:43;11.93;;;5.65;;
39676;SDS011;27789;50.840;4.386;2022-11-15T05:39:10;11.32;;;5.97;;
39676;SDS011;27789;50.840;4.386;2022-11-15T05:44:12;9.23;;;4.82;;
39676;SDS011;27789;50.840;4.386;2022-11-15T05:46:41;12.95;;;5.10;;
39676;SDS011;27789;50.840;4.386;2022-11-15T05:49:10;10.95;;;5.13;;
39676;SDS011;27789;50.840;4.386;2022-11-15T05:51:38;11.35;;;4.90;;
39676;SDS011;27789;50.840;4.386;2022-11-15T05:54:04;17.77;;;5.20;;
39676;SDS011;27789;50.840;4.386;2022-11-15T05:56:30;12.30;;;4.82;;
39676;SDS011;27789;50.840;4.386;2022-11-15T05:58:56;12.55;;;5.22;;
39676;SDS011;27789;50.840;4.386;2022-11-15T06:01:23;13.85;;;5.38;;
39676;SDS011;27789;50.840;4.386;2022-11-15T06:03:50;14.73;;;6.05;;
39676;SDS011;27789;50.840;4.386;2022-11-15T06:06:15;11.00;;;5.30;;
39676;SDS011;27789;50.840;4.386;2022-11-15T06:08:41;12.77;;;5.18;;
39676;SDS011;27789;50.840;4.386;2022-11-15T06:11:07;12.80;;;5.65;;
39676;SDS011;27789;50.840;4.386;2022-11-15T06:13:33;13.98;;;5.88;;
39676;SDS011;27789;50.840;4.386;2022-11-15T06:15:59;12.48;;;5.63;;
39676;SDS011;27789;50.840;4.386;2022-11-15T06:18:25;17.02;;;5.80;;
39676;SDS011;27789;50.840;4.386;2022-11-15T06:20:51;14.07;;;5.03;;
39676;SDS011;27789;50.840;4.386;2022-11-15T06:23:18;11.88;;;5.38;;
39676;SDS011;27789;50.840;4.386;2022-11-15T06:25:44;17.63;;;5.05;;
39676;SDS011;27789;50.840;4.386;2022-11-15T06:28:09;9.50;;;4.75;;
39676;SDS011;27789;50.840;4.386;2022-11-15T06:30:35;15.15;;;4.80;;
39676;SDS011;27789;50.840;4.386;2022-11-15T06:33:03;7.75;;;4.22;;
39676;SDS011;27789;50.840;4.386;2022-11-15T06:35:30;12.90;;;4.72;;
39676;SDS011;27789;50.840;4.386;2022-11-15T06:38:01;10.70;;;5.15;;
39676;SDS011;27789;50.840;4.386;2022-11-15T06:40:28;11.23;;;4.32;;
39676;SDS011;27789;50.840;4.386;2022-11-15T06:42:58;12.18;;;4.80;;
39676;SDS011;27789;50.840;4.386;2022-11-15T06:45:24;11.05;;;5.30;;
39676;SDS011;27789;50.840;4.386;2022-11-15T06:47:50;18.75;;;4.45;;
39676;SDS011;27789;50.840;4.386;2022-11-15T06:50:16;6.95;;;4.82;;
39676;SDS011;27789;50.840;4.386;2022-11-15T06:52:41;13.65;;;4.97;;
39676;SDS011;27789;50.840;4.386;2022-11-15T06:55:07;16.77;;;6.45;;
39676;SDS011;27789;50.840;4.386;2022-11-15T06:57:33;15.65;;;6.68;;
39676;SDS011;27789;50.840;4.386;2022-11-15T06:59:59;18.02;;;5.45;;
39676;SDS011;27789;50.840;4.386;2022-11-15T07:02:24;15.68;;;5.35;;
39676;SDS011;27789;50.840;4.386;2022-11-15T07:04:50;21.13;;;5.50;;
39676;SDS011;27789;50.840;4.386;2022-11-15T07:07:16;10.77;;;5.13;;
39676;SDS011;27789;50.840;4.386;2022-11-15T07:09:41;14.45;;;7.28;;
39676;SDS011;27789;50.840;4.386;2022-11-15T07:12:07;16.55;;;6.40;;
39676;SDS011;27789;50.840;4.386;2022-11-15T07:14:33;16.77;;;6.97;;
39676;SDS011;27789;50.840;4.386;2022-11-15T07:16:59;12.23;;;5.47;;
39676;SDS011;27789;50.840;4.386;2022-11-15T07:19:25;12.35;;;5.15;;
39676;SDS011;27789;50.840;4.386;2022-11-15T07:21:50;13.35;;;5.18;;
39676;SDS011;27789;50.840;4.386;2022-11-15T07:24:16;14.30;;;5.40;;
39676;SDS011;27789;50.840;4.386;2022-11-15T07:26:41;10.13;;;4.13;;
39676;SDS011;27789;50.840;4.386;2022-11-15T07:29:07;14.13;;;5.80;;
39676;SDS011;27789;50.840;4.386;2022-11-15T07:31:32;12.55;;;5.35;;
39676;SDS011;27789;50.840;4.386;2022-11-15T07:33:58;11.57;;;5.82;;
39676;SDS011;27789;50.840;4.386;2022-11-15T07:36:24;9.43;;;4.55;;
39676;SDS011;27789;50.840;4.386;2022-11-15T07:38:49;12.00;;;4.93;;
39676;SDS011;27789;50.840;4.386;2022-11-15T07:41:15;11.32;;;6.18;;
39676;SDS011;27789;50.840;4.386;2022-11-15T07:43:40;10.20;;;4.72;;
39676;SDS011;27789;50.840;4.386;2022-11-15T07:46:07;10.20;;;5.03;;
39676;SDS011;27789;50.840;4.386;2022-11-15T07:48:34;13.80;;;5.45;;
39676;SDS011;27789;50.840;4.386;2022-11-15T07:51:06;9.30;;;4.05;;
39676;SDS011;27789;50.840;4.386;2022-11-15T07:53:32;6.95;;;4.40;;
39676;SDS011;27789;50.840;4.386;2022-11-15T07:55:58;8.60;;;4.40;;
39676;SDS011;27789;50.840;4.386;2022-11-15T07:58:23;12.43;;;5.00;;
39676;SDS011;27789;50.840;4.386;2022-11-15T08:00:49;9.63;;;4.22;;
39676;SDS011;27789;50.840;4.386;2022-11-15T08:03:15;10.10;;;4.35;;
39676;SDS011;27789;50.840;4.386;2022-11-15T08:05:43;9.35;;;4.55;;
39676;SDS011;27789;50.840;4.386;2022-11-15T08:08:15;11.38;;;4.63;;
39676;SDS011;27789;50.840;4.386;2022-11-15T08:10:41;8.52;;;4.13;;
39676;SDS011;27789;50.840;4.386;2022-11-15T08:13:08;11.30;;;4.22;;
39676;SDS011;27789;50.840;4.386;2022-11-15T08:15:35;11.13;;;4.72;;
39676;SDS011;27789;50.840;4.386;2022-11-15T08:18:02;14.73;;;4.93;;
39676;SDS011;27789;50.840;4.386;2022-11-15T08:20:30;15.18;;;4.78;;
39676;SDS011;27789;50.840;4.386;2022-11-15T08:23:00;13.43;;;4.03;;
39676;SDS011;27789;50.840;4.386;2022-11-15T08:25:27;14.63;;;3.85;;
39676;SDS011;27789;50.840;4.386;2022-11-15T08:27:55;12.70;;;3.70;;
39676;SDS011;27789;50.840;4.386;2022-11-15T08:30:21;9.10;;;3.28;;
39676;SDS011;27789;50.840;4.386;2022-11-15T08:32:48;8.52;;;2.97;;
39676;SDS011;27789;50.840;4.386;2022-11-15T08:35:14;9.32;;;3.58;;
39676;SDS011;27789;50.840;4.386;2022-11-15T08:37:40;14.57;;;3.22;;
39676;SDS011;27789;50.840;4.386;2022-11-15T08:40:06;8.77;;;3.15;;
39676;SDS011;27789;50.840;4.386;2022-11-15T08:42:32;4.75;;;2.40;;
39676;SDS011;27789;50.840;4.386;2022-11-15T08:44:59;6.70;;;2.70;;
39676;SDS011;27789;50.840;4.386;2022-11-15T08:47:24;11.07;;;3.03;;
39676;SDS011;27789;50.840;4.386;2022-11-15T08:49:50;12.43;;;2.25;;
39676;SDS011;27789;50.840;4.386;2022-11-15T08:52:16;12.85;;;4.10;;
39676;SDS011;27789;50.840;4.386;2022-11-15T08:54:41;9.57;;;3.00;;
39676;SDS011;27789;50.840;4.386;2022-11-15T08:57:07;6.63;;;2.63;;
39676;SDS011;27789;50.840;4.386;2022-11-15T08:59:34;4.38;;;2.72;;
39676;SDS011;27789;50.840;4.386;2022-11-15T09:02:00;12.93;;;3.35;;
39676;SDS011;27789;50.840;4.386;2022-11-15T09:04:26;5.00;;;2.20;;
39676;SDS011;27789;50.840;4.386;2022-11-15T09:06:55;9.57;;;2.58;;
39676;SDS011;27789;50.840;4.386;2022-11-15T09:09:20;13.70;;;2.40;;
39676;SDS011;27789;50.840;4.386;2022-11-15T09:11:46;11.50;;;2.45;;
39676;SDS011;27789;50.840;4.386;2022-11-15T09:14:12;6.57;;;2.85;;
39676;SDS011;27789;50.840;4.386;2022-11-15T09:16:38;5.68;;;2.15;;
39676;SDS011;27789;50.840;4.386;2022-11-15T09:19:04;7.15;;;2.42;;
39676;SDS011;27789;50.840;4.386;2022-11-15T09:21:30;5.68;;;2.42;;
39676;SDS011;27789;50.840;4.386;2022-11-15T09:23:55;7.90;;;2.70;;
39676;SDS011;27789;50.840;4.386;2022-11-15T09:26:21;3.75;;;2.15;;
39676;SDS011;27789;50.840;4.386;2022-11-15T09:28:46;8.43;;;2.30;;
39676;SDS011;27789;50.840;4.386;2022-11-15T09:31:12;11.15;;;2.47;;
39676;SDS011;27789;50.840;4.386;2022-11-15T09:33:38;6.35;;;2.40;;
39676;SDS011;27789;50.840;4.386;2022-11-15T09:36:07;11.43;;;2.13;;
39676;SDS011;27789;50.840;4.386;2022-11-15T09:38:34;6.68;;;2.38;;
39676;SDS011;27789;50.840;4.386;2022-11-15T09:46:21;7.82;;;2.05;;
39676;SDS011;27789;50.840;4.386;2022-11-15T09:48:59;6.72;;;1.88;;
39676;SDS011;27789;50.840;4.386;2022-11-15T09:56:34;14.48;;;2.22;;
39676;SDS011;27789;50.840;4.386;2022-11-15T10:04:14;9.30;;;2.03;;
39676;SDS011;27789;50.840;4.386;2022-11-15T10:06:42;10.15;;;2.00;;
39676;SDS011;27789;50.840;4.386;2022-11-15T10:11:51;6.57;;;2.15;;
39676;SDS011;27789;50.840;4.386;2022-11-15T10:14:18;8.25;;;2.40;;
39676;SDS011;27789;50.840;4.386;2022-11-15T10:16:51;15.13;;;2.08;;
39676;SDS011;27789;50.840;4.386;2022-11-15T10:19:34;6.55;;;2.15;;
39676;SDS011;27789;50.840;4.386;2022-11-15T10:24:52;8.95;;;1.98;;
39676;SDS011;27789;50.840;4.386;2022-11-15T10:30:38;10.32;;;1.92;;
39676;SDS011;27789;50.840;4.386;2022-11-15T10:35:42;7.78;;;2.20;;
39676;SDS011;27789;50.840;4.386;2022-11-15T10:38:09;8.10;;;1.98;;
39676;SDS011;27789;50.840;4.386;2022-11-15T10:40:36;11.40;;;2.40;;
39676;SDS011;27789;50.840;4.386;2022-11-15T10:43:12;9.40;;;2.40;;
39676;SDS011;27789;50.840;4.386;2022-11-15T10:45:41;10.85;;;1.70;;
39676;SDS011;27789;50.840;4.386;2022-11-15T10:50:43;10.80;;;2.17;;
39676;SDS011;27789;50.840;4.386;2022-11-15T10:53:32;4.90;;;1.52;;
39676;SDS011;27789;50.840;4.386;2022-11-15T10:56:05;9.00;;;1.50;;
39676;SDS011;27789;50.840;4.386;2022-11-15T10:58:37;7.15;;;1.73;;
39676;SDS011;27789;50.840;4.386;2022-11-15T11:01:13;3.92;;;1.52;;
39676;SDS011;27789;50.840;4.386;2022-11-15T11:03:41;8.88;;;1.67;;
39676;SDS011;27789;50.840;4.386;2022-11-15T11:06:13;8.48;;;1.98;;
39676;SDS011;27789;50.840;4.386;2022-11-15T11:08:41;11.55;;;1.83;;
39676;SDS011;27789;50.840;4.386;2022-11-15T11:11:19;9.35;;;2.17;;
39676;SDS011;27789;50.840;4.386;2022-11-15T11:13:45;9.60;;;2.10;;
39676;SDS011;27789;50.840;4.386;2022-11-15T11:21:14;10.10;;;2.20;;
39676;SDS011;27789;50.840;4.386;2022-11-15T11:37:12;10.65;;;1.95;;
39676;SDS011;27789;50.840;4.386;2022-11-15T11:47:39;7.65;;;1.65;;
39676;SDS011;27789;50.840;4.386;2022-11-15T11:50:18;4.97;;;1.13;;
39676;SDS011;27789;50.840;4.386;2022-11-15T11:55:39;15.65;;;3.05;;
39676;SDS011;27789;50.840;4.386;2022-11-15T12:00:56;9.68;;;3.20;;
39676;SDS011;27789;50.840;4.386;2022-11-15T12:03:39;8.73;;;2.00;;
39676;SDS011;27789;50.840;4.386;2022-11-15T12:14:32;10.85;;;1.55;;
39676;SDS011;27789;50.840;4.386;2022-11-15T12:16:58;7.82;;;1.50;;
39676;SDS011;27789;50.840;4.386;2022-11-15T12:19:24;7.47;;;1.45;;
39676;SDS011;27789;50.840;4.386;2022-11-15T12:24:26;6.27;;;1.40;;
39676;SDS011;27789;50.840;4.386;2022-11-15T12:29:35;14.18;;;2.47;;
39676;SDS011;27789;50.840;4.386;2022-11-15T12:32:12;8.02;;;3.55;;
39676;SDS011;27789;50.840;4.386;2022-11-15T12:34:48;20.88;;;2.78;;
39676;SDS011;27789;50.840;4.386;2022-11-15T12:44:59;12.60;;;2.22;;
39676;SDS011;27789;50.840;4.386;2022-11-15T12:47:26;13.38;;;2.30;;
39676;SDS011;27789;50.840;4.386;2022-11-15T12:49:52;21.55;;;2.72;;
39676;SDS011;27789;50.840;4.386;2022-11-15T12:52:18;5.72;;;1.60;;
39676;SDS011;27789;50.840;4.386;2022-11-15T12:54:51;3.92;;;1.58;;
39676;SDS011;27789;50.840;4.386;2022-11-15T13:07:58;7.70;;;1.60;;
39676;SDS011;27789;50.840;4.386;2022-11-15T13:12:56;5.18;;;1.50;;
39676;SDS011;27789;50.840;4.386;2022-11-15T13:20:59;6.10;;;1.73;;
39676;SDS011;27789;50.840;4.386;2022-11-15T13:23:26;6.90;;;1.48;;
39676;SDS011;27789;50.840;4.386;2022-11-15T13:33:42;1.35;;;1.25;;
39676;SDS011;27789;50.840;4.386;2022-11-15T13:36:12;13.18;;;1.85;;
39676;SDS011;27789;50.840;4.386;2022-11-15T13:38:54;6.60;;;1.77;;
39676;SDS011;27789;50.840;4.386;2022-11-15T13:41:21;7.32;;;1.67;;
39676;SDS011;27789;50.840;4.386;2022-11-15T13:43:49;7.15;;;2.42;;
39676;SDS011;27789;50.840;4.386;2022-11-15T13:46:17;6.22;;;1.90;;
39676;SDS011;27789;50.840;4.386;2022-11-15T13:48:43;11.93;;;2.28;;
39676;SDS011;27789;50.840;4.386;2022-11-15T13:53:48;4.63;;;1.77;;
39676;SDS011;27789;50.840;4.386;2022-11-15T13:56:23;4.90;;;1.45;;
39676;SDS011;27789;50.840;4.386;2022-11-15T13:58:52;3.30;;;1.67;;
39676;SDS011;27789;50.840;4.386;2022-11-15T14:01:19;5.88;;;1.65;;
39676;SDS011;27789;50.840;4.386;2022-11-15T14:03:51;5.18;;;1.55;;
39676;SDS011;27789;50.840;4.386;2022-11-15T14:06:21;4.38;;;1.80;;
39676;SDS011;27789;50.840;4.386;2022-11-15T14:11:36;5.75;;;1.85;;
39676;SDS011;27789;50.840;4.386;2022-11-15T14:16:39;2.42;;;1.45;;
39676;SDS011;27789;50.840;4.386;2022-11-15T14:19:13;23.63;;;3.60;;
39676;SDS011;27789;50.840;4.386;2022-11-15T14:24:37;5.22;;;1.55;;
39676;SDS011;27789;50.840;4.386;2022-11-15T14:30:00;3.22;;;2.00;;
39676;SDS011;27789;50.840;4.386;2022-11-15T14:32:39;10.85;;;2.00;;
39676;SDS011;27789;50.840;4.386;2022-11-15T14:35:12;9.07;;;2.05;;
39676;SDS011;27789;50.840;4.386;2022-11-15T14:37:41;15.82;;;2.10;;
39676;SDS011;27789;50.840;4.386;2022-11-15T14:40:08;13.40;;;2.20;;
39676;SDS011;27789;50.840;4.386;2022-11-15T14:42:37;10.73;;;2.10;;
39676;SDS011;27789;50.840;4.386;2022-11-15T14:45:02;14.70;;;2.53;;
39676;SDS011;27789;50.840;4.386;2022-11-15T14:47:33;5.20;;;2.58;;
39676;SDS011;27789;50.840;4.386;2022-11-15T14:49:59;4.57;;;1.70;;
39676;SDS011;27789;50.840;4.386;2022-11-15T14:52:26;15.07;;;3.75;;
39676;SDS011;27789;50.840;4.386;2022-11-15T14:54:53;9.80;;;2.65;;
39676;SDS011;27789;50.840;4.386;2022-11-15T14:57:20;6.63;;;2.47;;
39676;SDS011;27789;50.840;4.386;2022-11-15T14:59:45;4.40;;;1.83;;
39676;SDS011;27789;50.840;4.386;2022-11-15T15:04:49;3.20;;;2.33;;
39676;SDS011;27789;50.840;4.386;2022-11-15T15:07:15;9.35;;;2.28;;
39676;SDS011;27789;50.840;4.386;2022-11-15T15:09:42;4.03;;;1.90;;
39676;SDS011;27789;50.840;4.386;2022-11-15T15:12:20;5.13;;;1.85;;
39676;SDS011;27789;50.840;4.386;2022-11-15T15:14:47;2.10;;;1.90;;
39676;SDS011;27789;50.840;4.386;2022-11-15T15:17:14;7.20;;;1.77;;
39676;SDS011;27789;50.840;4.386;2022-11-15T15:19:40;14.25;;;2.83;;
39676;SDS011;27789;50.840;4.386;2022-11-15T15:22:08;27.13;;;4.18;;
39676;SDS011;27789;50.840;4.386;2022-11-15T15:24:38;5.95;;;1.70;;
39676;SDS011;27789;50.840;4.386;2022-11-15T15:27:04;7.93;;;2.33;;
39676;SDS011;27789;50.840;4.386;2022-11-15T15:29:29;3.05;;;2.47;;
39676;SDS011;27789;50.840;4.386;2022-11-15T15:31:55;5.90;;;2.60;;
39676;SDS011;27789;50.840;4.386;2022-11-15T15:34:20;4.13;;;2.55;;
39676;SDS011;27789;50.840;4.386;2022-11-15T15:36:46;5.32;;;2.80;;
39676;SDS011;27789;50.840;4.386;2022-11-15T15:39:12;3.92;;;2.63;;
39676;SDS011;27789;50.840;4.386;2022-11-15T15:41:37;4.88;;;2.33;;
39676;SDS011;27789;50.840;4.386;2022-11-15T15:44:03;5.07;;;2.42;;
39676;SDS011;27789;50.840;4.386;2022-11-15T15:46:28;8.25;;;2.50;;
39676;SDS011;27789;50.840;4.386;2022-11-15T15:48:54;5.60;;;2.72;;
39676;SDS011;27789;50.840;4.386;2022-11-15T15:51:20;3.17;;;2.10;;
39676;SDS011;27789;50.840;4.386;2022-11-15T15:53:45;5.43;;;2.80;;
39676;SDS011;27789;50.840;4.386;2022-11-15T15:56:12;2.88;;;2.67;;
39676;SDS011;27789;50.840;4.386;2022-11-15T15:58:37;4.80;;;2.53;;
39676;SDS011;27789;50.840;4.386;2022-11-15T16:01:03;4.30;;;2.72;;
39676;SDS011;27789;50.840;4.386;2022-11-15T16:03:29;4.65;;;2.45;;
39676;SDS011;27789;50.840;4.386;2022-11-15T16:05:55;3.83;;;2.22;;
39676;SDS011;27789;50.840;4.386;2022-11-15T16:08:21;4.82;;;2.72;;
39676;SDS011;27789;50.840;4.386;2022-11-15T16:10:48;5.00;;;2.53;;
39676;SDS011;27789;50.840;4.386;2022-11-15T16:13:14;4.55;;;2.42;;
39676;SDS011;27789;50.840;4.386;2022-11-15T16:15:40;3.47;;;2.50;;
39676;SDS011;27789;50.840;4.386;2022-11-15T16:18:09;3.88;;;2.53;;
39676;SDS011;27789;50.840;4.386;2022-11-15T16:20:41;3.00;;;2.47;;
39676;SDS011;27789;50.840;4.386;2022-11-15T16:23:13;3.22;;;2.33;;
39676;SDS011;27789;50.840;4.386;2022-11-15T16:28:11;3.47;;;2.40;;
39676;SDS011;27789;50.840;4.386;2022-11-15T16:30:58;2.67;;;2.47;;
39676;SDS011;27789;50.840;4.386;2022-11-15T16:33:26;5.82;;;2.50;;
39676;SDS011;27789;50.840;4.386;2022-11-15T16:35:52;6.05;;;3.60;;
39676;SDS011;27789;50.840;4.386;2022-11-15T16:38:17;4.00;;;2.80;;
39676;SDS011;27789;50.840;4.386;2022-11-15T16:40:43;6.63;;;3.17;;
39676;SDS011;27789;50.840;4.386;2022-11-15T16:43:09;5.28;;;2.70;;
39676;SDS011;27789;50.840;4.386;2022-11-15T16:45:35;4.40;;;2.60;;
39676;SDS011;27789;50.840;4.386;2022-11-15T16:48:00;3.60;;;3.30;;
39676;SDS011;27789;50.840;4.386;2022-11-15T16:50:28;2.65;;;2.45;;
39676;SDS011;27789;50.840;4.386;2022-11-15T16:52:56;3.83;;;3.00;;
39676;SDS011;27789;50.840;4.386;2022-11-15T16:55:23;3.97;;;2.55;;
39676;SDS011;27789;50.840;4.386;2022-11-15T16:57:52;6.18;;;2.63;;
39676;SDS011;27789;50.840;4.386;2022-11-15T17:00:18;6.88;;;3.05;;
39676;SDS011;27789;50.840;4.386;2022-11-15T17:02:46;4.57;;;2.72;;
39676;SDS011;27789;50.840;4.386;2022-11-15T17:05:12;7.13;;;3.50;;
39676;SDS011;27789;50.840;4.386;2022-11-15T17:07:40;4.22;;;2.85;;
39676;SDS011;27789;50.840;4.386;2022-11-15T17:10:06;7.72;;;3.83;;
39676;SDS011;27789;50.840;4.386;2022-11-15T17:12:33;4.10;;;2.88;;
39676;SDS011;27789;50.840;4.386;2022-11-15T17:15:00;3.78;;;3.15;;
39676;SDS011;27789;50.840;4.386;2022-11-15T17:17:25;3.25;;;2.92;;
39676;SDS011;27789;50.840;4.386;2022-11-15T17:19:51;4.57;;;2.90;;
39676;SDS011;27789;50.840;4.386;2022-11-15T17:22:18;7.75;;;3.30;;
39676;SDS011;27789;50.840;4.386;2022-11-15T17:24:44;3.75;;;3.10;;
39676;SDS011;27789;50.840;4.386;2022-11-15T17:27:10;4.20;;;3.53;;
39676;SDS011;27789;50.840;4.386;2022-11-15T17:29:35;4.10;;;3.70;;
39676;SDS011;27789;50.840;4.386;2022-11-15T17:32:01;4.25;;;3.45;;
39676;SDS011;27789;50.840;4.386;2022-11-15T17:34:26;4.72;;;3.83;;
39676;SDS011;27789;50.840;4.386;2022-11-15T17:36:52;6.70;;;3.67;;
39676;SDS011;27789;50.840;4.386;2022-11-15T17:39:18;7.05;;;3.83;;